createdAt,value
2023-04-17T00:01:16.539Z,13.90
2023-04-17T00:03:45.028Z,15.60
2023-04-17T00:06:14.091Z,17.37
2023-04-17T00:08:41.139Z,17.67
2023-04-17T00:11:09.131Z,18.43
2023-04-17T00:13:36.613Z,13.83
2023-04-17T00:16:03.636Z,15.23
2023-04-17T00:18:30.669Z,14.03
2023-04-17T00:20:57.751Z,13.93
2023-04-17T00:23:26.215Z,14.00
2023-04-17T00:25:53.671Z,15.33
2023-04-17T00:28:20.888Z,13.57
2023-04-17T00:30:47.836Z,13.20
2023-04-17T00:33:14.773Z,14.90
2023-04-17T00:35:41.686Z,15.53
2023-04-17T00:38:09.399Z,16.80
2023-04-17T00:40:36.782Z,12.20
2023-04-17T00:43:06.785Z,12.93
2023-04-17T00:45:34.716Z,13.27
2023-04-17T00:48:04.136Z,14.57
2023-04-17T00:50:31.759Z,13.33
2023-04-17T00:52:58.824Z,15.60
2023-04-17T00:55:27.756Z,14.20
2023-04-17T00:57:56.728Z,13.70
2023-04-17T01:00:24.540Z,11.97
2023-04-17T01:02:51.884Z,13.07
2023-04-17T01:05:19.067Z,14.63
2023-04-17T01:07:46.377Z,11.00
2023-04-17T01:10:13.884Z,13.20
2023-04-17T01:12:41.483Z,11.07
2023-04-17T01:15:08.720Z,12.07
2023-04-17T01:17:35.836Z,14.70
2023-04-17T01:20:06.617Z,13.77
2023-04-17T01:22:33.802Z,14.73
2023-04-17T01:25:01.017Z,14.27
2023-04-17T01:27:35.289Z,12.43
2023-04-17T01:30:02.433Z,13.90
2023-04-17T01:32:32.221Z,14.63
2023-04-17T01:35:00.082Z,15.17
2023-04-17T01:37:27.640Z,12.87
2023-04-17T01:39:55.688Z,16.97
2023-04-17T01:42:23.399Z,16.07
2023-04-17T01:44:50.764Z,15.60
2023-04-17T01:47:18.320Z,14.17
2023-04-17T01:49:45.232Z,15.57
2023-04-17T01:52:12.340Z,15.93
2023-04-17T01:54:39.225Z,15.20
2023-04-17T01:57:06.277Z,15.90
2023-04-17T01:59:33.288Z,13.93
2023-04-17T02:02:00.271Z,16.20
2023-04-17T02:04:27.686Z,14.57
2023-04-17T02:06:54.965Z,17.93
2023-04-17T02:09:21.986Z,13.83
2023-04-17T02:11:49.023Z,15.93
2023-04-17T02:14:19.148Z,15.73
2023-04-17T02:16:46.146Z,16.00
2023-04-17T02:19:13.961Z,14.97
2023-04-17T02:21:41.032Z,14.30
2023-04-17T02:24:07.917Z,17.07
2023-04-17T02:26:34.805Z,14.57
2023-04-17T02:29:01.698Z,14.50
2023-04-17T02:31:28.638Z,15.17
2023-04-17T02:33:55.754Z,16.60
2023-04-17T02:36:22.702Z,15.90
2023-04-17T02:38:49.546Z,19.30
2023-04-17T02:41:16.403Z,16.67
2023-04-17T02:43:44.162Z,17.33
2023-04-17T02:46:11.448Z,16.47
2023-04-17T02:48:38.330Z,16.43
2023-04-17T02:51:05.435Z,18.07
2023-04-17T02:53:32.363Z,16.07
2023-04-17T02:55:59.212Z,15.10
2023-04-17T02:58:26.829Z,14.47
2023-04-17T03:01:01.094Z,16.63
2023-04-17T03:03:35.454Z,17.33
2023-04-17T03:06:07.009Z,18.17
2023-04-17T03:08:35.839Z,15.50
2023-04-17T03:11:03.488Z,17.33
2023-04-17T03:13:30.868Z,17.90
2023-04-17T03:15:58.618Z,16.33
2023-04-17T03:18:25.929Z,15.67
2023-04-17T03:20:54.121Z,13.03
2023-04-17T03:23:21.082Z,15.10
2023-04-17T03:25:48.362Z,14.97
2023-04-17T03:28:16.232Z,16.40
2023-04-17T03:30:43.506Z,14.07
2023-04-17T03:33:10.648Z,17.13
2023-04-17T03:35:37.707Z,15.47
2023-04-17T03:38:07.675Z,16.23
2023-04-17T03:40:35.011Z,16.57
2023-04-17T03:43:02.160Z,14.87
2023-04-17T03:45:30.829Z,13.10
2023-04-17T03:47:58.251Z,14.60
2023-04-17T03:50:25.635Z,14.83
2023-04-17T03:52:57.051Z,14.90
2023-04-17T03:55:26.512Z,13.23
2023-04-17T03:57:53.838Z,12.47
2023-04-17T04:00:24.925Z,11.77
2023-04-17T04:02:57.844Z,11.63
2023-04-17T04:05:29.460Z,11.80
2023-04-17T04:07:56.999Z,12.97
2023-04-17T04:10:34.484Z,12.43
2023-04-17T04:13:01.362Z,15.13
2023-04-17T04:15:28.854Z,13.70
2023-04-17T04:18:00.027Z,9.47
2023-04-17T04:20:27.119Z,11.37
2023-04-17T04:23:04.631Z,11.20
2023-04-17T04:25:34.147Z,13.03
2023-04-17T04:28:19.988Z,15.23
2023-04-17T04:30:50.643Z,14.17
2023-04-17T04:33:20.645Z,14.87
2023-04-17T04:35:48.672Z,15.87
2023-04-17T04:38:17.340Z,16.43
2023-04-17T04:40:52.715Z,15.20
2023-04-17T04:43:22.514Z,16.07
2023-04-17T04:45:53.917Z,15.90
2023-04-17T04:48:21.446Z,14.13
2023-04-17T04:50:48.395Z,11.83
2023-04-17T04:53:16.177Z,11.33
2023-04-17T04:55:48.927Z,10.00
2023-04-17T04:58:16.314Z,11.37
2023-04-17T05:00:45.721Z,10.27
2023-04-17T05:03:19.369Z,12.90
2023-04-17T05:05:48.073Z,10.47
2023-04-17T05:08:16.045Z,10.50
2023-04-17T05:10:50.663Z,11.83
2023-04-17T05:13:18.054Z,11.30
2023-04-17T05:15:45.601Z,12.33
2023-04-17T05:18:12.882Z,12.10
2023-04-17T05:20:41.355Z,11.13
2023-04-17T05:23:08.984Z,10.67
2023-04-17T05:25:36.246Z,11.13
2023-04-17T05:28:07.368Z,11.00
2023-04-17T05:30:35.026Z,11.67
2023-04-17T05:33:13.253Z,12.73
2023-04-17T05:35:48.579Z,10.77
2023-04-17T05:38:15.871Z,12.03
2023-04-17T05:40:42.834Z,12.53
2023-04-17T05:43:12.013Z,13.40
2023-04-17T05:45:41.556Z,11.80
2023-04-17T05:48:09.523Z,13.13
2023-04-17T05:50:37.550Z,11.27
2023-04-17T05:53:06.395Z,13.23
2023-04-17T05:55:43.249Z,13.00
2023-04-17T06:00:43.234Z,16.57
2023-04-17T06:03:14.071Z,14.17
2023-04-17T06:05:42.459Z,15.73
2023-04-17T06:08:11.008Z,16.93
2023-04-17T06:10:38.029Z,13.10
2023-04-17T06:13:04.889Z,13.13
2023-04-17T06:15:31.880Z,10.57
2023-04-17T06:17:59.008Z,14.50
2023-04-17T06:20:25.911Z,12.73
2023-04-17T06:22:53.926Z,13.07
2023-04-17T06:25:23.124Z,12.90
2023-04-17T06:27:49.995Z,11.63
2023-04-17T06:30:17.120Z,12.37
2023-04-17T06:32:49.611Z,12.30
2023-04-17T06:35:18.223Z,12.23
2023-04-17T06:37:49.898Z,10.77
2023-04-17T06:40:17.253Z,14.00
2023-04-17T06:42:44.086Z,14.70
2023-04-17T06:45:17.537Z,13.60
2023-04-17T06:47:46.693Z,14.57
2023-04-17T06:50:17.096Z,12.60
2023-04-17T06:52:44.223Z,12.77
2023-04-17T06:55:11.447Z,13.53
2023-04-17T06:57:39.231Z,13.47
2023-04-17T07:00:06.905Z,13.00
2023-04-17T07:02:33.918Z,14.00
2023-04-17T07:05:01.193Z,13.63
2023-04-17T07:07:30.945Z,13.97
2023-04-17T07:09:58.047Z,13.40
2023-04-17T07:12:25.087Z,13.60
2023-04-17T07:14:52.019Z,16.17
2023-04-17T07:17:19.105Z,15.00
2023-04-17T07:19:46.013Z,15.40
2023-04-17T07:22:12.878Z,14.93
2023-04-17T07:24:39.965Z,14.90
2023-04-17T07:27:07.411Z,12.77
2023-04-17T07:29:34.353Z,13.67
2023-04-17T07:32:03.988Z,12.63
2023-04-17T07:34:34.400Z,11.07
2023-04-17T07:37:01.784Z,11.40
2023-04-17T07:39:31.824Z,10.93
2023-04-17T07:41:58.940Z,9.63
2023-04-17T07:44:26.225Z,9.70
2023-04-17T07:46:53.162Z,11.37
2023-04-17T07:49:20.354Z,11.30
2023-04-17T07:51:47.291Z,10.20
2023-04-17T07:54:14.604Z,10.53
2023-04-17T07:56:41.595Z,9.50
2023-04-17T07:59:08.520Z,9.97
2023-04-17T08:01:35.523Z,8.50
2023-04-17T08:04:03.346Z,7.90
2023-04-17T08:06:30.820Z,8.67
2023-04-17T08:08:59.983Z,10.40
2023-04-17T08:11:26.921Z,10.20
2023-04-17T08:13:57.172Z,10.57
2023-04-17T08:16:24.497Z,10.93
2023-04-17T08:18:51.466Z,9.53
2023-04-17T08:21:18.376Z,11.17
2023-04-17T08:23:45.378Z,12.17
2023-04-17T08:26:13.596Z,13.30
2023-04-17T08:28:41.219Z,12.93
2023-04-17T08:31:10.492Z,15.23
2023-04-17T08:33:37.326Z,15.13
2023-04-17T08:36:06.578Z,15.93
2023-04-17T08:38:36.126Z,17.67
2023-04-17T08:41:06.150Z,14.10
2023-04-17T08:43:35.851Z,16.87
2023-04-17T08:46:03.596Z,17.30
2023-04-17T08:48:31.133Z,12.63
2023-04-17T08:50:58.276Z,16.10
2023-04-17T08:53:25.545Z,15.23
2023-04-17T08:55:52.747Z,11.23
2023-04-17T08:58:21.969Z,10.57
2023-04-17T09:00:48.902Z,11.50
2023-04-17T09:03:16.982Z,10.10
2023-04-17T09:05:46.510Z,9.57
2023-04-17T09:08:21.661Z,10.57
2023-04-17T09:10:50.606Z,11.40
2023-04-17T09:13:21.201Z,9.80
2023-04-17T09:16:04.488Z,12.73
2023-04-17T09:18:32.344Z,10.47
2023-04-17T09:21:00.505Z,9.53
2023-04-17T09:23:29.842Z,9.03
2023-04-17T09:26:11.173Z,10.10
2023-04-17T09:28:41.459Z,8.03
2023-04-17T09:31:17.538Z,9.40
2023-04-17T09:33:59.059Z,13.10
2023-04-17T09:36:30.921Z,10.80
2023-04-17T09:39:00.354Z,9.63
2023-04-17T09:41:28.988Z,12.13
2023-04-17T09:43:57.354Z,10.37
2023-04-17T09:46:47.802Z,13.07
2023-04-17T09:49:42.221Z,10.37
2023-04-17T09:52:09.445Z,10.53
2023-04-17T09:54:40.020Z,10.67
2023-04-17T09:57:08.732Z,11.80
2023-04-17T09:59:45.208Z,11.93
2023-04-17T10:02:17.846Z,9.37
2023-04-17T10:04:46.338Z,9.17
2023-04-17T10:07:14.087Z,10.83
2023-04-17T10:09:42.091Z,7.83
2023-04-17T10:12:17.966Z,9.77
2023-04-17T10:14:48.336Z,10.23
2023-04-17T10:17:26.259Z,9.00
2023-04-17T10:19:53.629Z,8.87
2023-04-17T10:22:20.547Z,8.93
2023-04-17T10:24:52.744Z,8.87
2023-04-17T10:27:28.732Z,8.57
2023-04-17T10:30:03.177Z,10.00
2023-04-17T10:32:31.302Z,9.10
2023-04-17T10:35:04.574Z,10.90
2023-04-17T10:37:52.460Z,12.20
2023-04-17T10:40:21.462Z,8.30
2023-04-17T10:43:06.478Z,9.60
2023-04-17T10:45:51.985Z,10.30
2023-04-17T10:48:23.292Z,9.63
2023-04-17T10:50:50.517Z,9.07
2023-04-17T10:53:40.674Z,11.73
2023-04-17T10:56:09.872Z,12.13
2023-04-17T10:59:00.930Z,11.13
2023-04-17T11:01:37.713Z,9.57
2023-04-17T11:04:06.290Z,10.83
2023-04-17T11:06:37.991Z,12.33
2023-04-17T11:09:08.887Z,11.70
2023-04-17T11:11:43.972Z,12.67
2023-04-17T11:14:22.983Z,12.00
2023-04-17T11:16:51.941Z,11.67
2023-04-17T11:19:26.344Z,11.67
2023-04-17T11:21:58.687Z,12.27
2023-04-17T11:24:30.658Z,11.87
2023-04-17T11:26:59.934Z,12.23
2023-04-17T11:29:27.667Z,13.33
2023-04-17T11:31:56.613Z,12.60
2023-04-17T11:34:25.717Z,12.07
2023-04-17T11:37:01.129Z,10.90
2023-04-17T11:39:33.612Z,12.10
2023-04-17T11:42:05.382Z,11.63
2023-04-17T11:44:32.625Z,9.90
2023-04-17T11:47:00.148Z,14.00
2023-04-17T11:49:28.340Z,12.60
2023-04-17T11:51:58.243Z,13.20
2023-04-17T11:54:34.390Z,10.37
2023-04-17T11:57:04.070Z,10.53
2023-04-17T11:59:36.832Z,13.27
2023-04-17T12:02:06.750Z,10.80
2023-04-17T12:04:35.362Z,13.47
2023-04-17T12:07:04.794Z,11.90
2023-04-17T12:09:33.754Z,11.80
2023-04-17T12:12:09.871Z,15.00
2023-04-17T12:14:37.058Z,16.17
2023-04-17T12:17:03.973Z,13.40
2023-04-17T12:19:32.264Z,14.03
2023-04-17T12:21:59.675Z,10.80
2023-04-17T12:24:26.797Z,12.73
2023-04-17T12:26:53.924Z,13.13
2023-04-17T12:29:29.593Z,13.70
2023-04-17T12:32:10.568Z,15.67
2023-04-17T12:34:37.704Z,15.60
2023-04-17T12:37:04.525Z,14.53
2023-04-17T12:39:32.785Z,16.93
2023-04-17T12:41:59.723Z,13.20
2023-04-17T12:44:26.610Z,11.67
2023-04-17T12:46:53.610Z,13.93
2023-04-17T12:49:20.999Z,15.57
2023-04-17T12:51:47.880Z,14.23
2023-04-17T12:54:14.906Z,13.17
2023-04-17T12:56:42.018Z,13.80
2023-04-17T12:59:09.076Z,14.13
2023-04-17T13:01:36.162Z,12.87
2023-04-17T13:04:03.708Z,13.27
2023-04-17T13:06:30.754Z,14.20
2023-04-17T13:08:57.831Z,14.93
2023-04-17T13:11:24.955Z,13.47
2023-04-17T13:13:51.945Z,18.20
2023-04-17T13:16:19.068Z,15.70
2023-04-17T13:18:45.945Z,16.80
2023-04-17T13:21:12.802Z,14.67
2023-04-17T13:23:39.745Z,15.67
2023-04-17T13:26:06.564Z,16.33
2023-04-17T13:28:33.405Z,13.47
2023-04-17T13:31:00.360Z,15.77
2023-04-17T13:33:27.271Z,13.67
2023-04-17T13:35:54.373Z,13.03
2023-04-17T13:38:21.250Z,13.10
2023-04-17T13:40:48.402Z,12.33
2023-04-17T13:43:15.710Z,15.03
2023-04-17T13:45:43.586Z,12.80
2023-04-17T13:48:11.654Z,16.10
2023-04-17T13:50:39.244Z,13.90
2023-04-17T13:53:06.329Z,13.73
2023-04-17T13:55:33.271Z,13.03
2023-04-17T13:58:01.131Z,16.90
2023-04-17T14:00:28.312Z,14.33
2023-04-17T14:02:55.376Z,15.17
2023-04-17T14:05:22.574Z,13.23
2023-04-17T14:07:50.058Z,15.17
2023-04-17T14:10:17.542Z,12.27
2023-04-17T14:12:44.619Z,11.57
2023-04-17T14:15:13.419Z,13.60
2023-04-17T14:17:43.300Z,12.90
2023-04-17T14:20:11.358Z,13.43
2023-04-17T14:22:38.379Z,12.83
2023-04-17T14:25:06.125Z,10.77
2023-04-17T14:27:34.376Z,13.40
2023-04-17T14:30:01.668Z,13.97
2023-04-17T14:32:28.808Z,12.43
2023-04-17T14:34:55.758Z,11.70
2023-04-17T14:37:22.763Z,13.50
2023-04-17T14:39:49.678Z,11.33
2023-04-17T14:42:16.536Z,15.87
2023-04-17T14:44:44.112Z,11.67
2023-04-17T14:47:13.155Z,11.37
2023-04-17T14:49:40.248Z,12.73
2023-04-17T14:52:07.330Z,13.10
2023-04-17T14:54:34.399Z,15.67
2023-04-17T14:57:01.669Z,11.87
2023-04-17T14:59:28.830Z,12.40
2023-04-17T15:01:56.051Z,13.23
2023-04-17T15:04:23.339Z,11.23
2023-04-17T15:06:50.449Z,9.90
2023-04-17T15:09:17.384Z,11.10
2023-04-17T15:11:44.285Z,10.97
2023-04-17T15:14:11.141Z,12.73
2023-04-17T15:16:38.270Z,13.90
2023-04-17T15:19:05.181Z,12.80
2023-04-17T15:21:32.091Z,13.37
2023-04-17T15:23:59.222Z,11.93
2023-04-17T15:26:27.416Z,11.67
2023-04-17T15:28:55.023Z,10.40
2023-04-17T15:31:22.186Z,13.40
2023-04-17T15:33:49.187Z,11.70
2023-04-17T15:36:16.285Z,14.10
2023-04-17T15:38:44.070Z,14.53
2023-04-17T15:41:11.132Z,14.90
2023-04-17T15:43:38.787Z,17.50
2023-04-17T15:46:06.326Z,13.17
2023-04-17T15:48:33.303Z,16.20
2023-04-17T15:51:02.969Z,19.70
2023-04-17T15:53:29.995Z,13.80
2023-04-17T15:55:56.924Z,13.03
2023-04-17T15:58:24.191Z,11.20
2023-04-17T16:00:51.214Z,13.33
2023-04-17T16:03:18.396Z,11.67
2023-04-17T16:05:45.654Z,12.57
2023-04-17T16:08:12.757Z,11.87
2023-04-17T16:10:39.931Z,12.50
2023-04-17T16:13:06.773Z,13.47
2023-04-17T16:15:33.826Z,13.77
2023-04-17T16:18:01.289Z,13.10
2023-04-17T16:20:28.289Z,11.87
2023-04-17T16:22:56.197Z,12.43
2023-04-17T16:25:23.255Z,11.87
2023-04-17T16:27:50.342Z,14.60
2023-04-17T16:30:17.370Z,12.53
2023-04-17T16:32:45.610Z,12.57
2023-04-17T16:35:13.405Z,10.40
2023-04-17T16:37:40.648Z,10.70
2023-04-17T16:40:08.237Z,13.43
2023-04-17T16:42:35.272Z,15.80
2023-04-17T16:45:02.356Z,11.63
2023-04-17T16:47:29.945Z,17.00
2023-04-17T16:49:57.364Z,13.37
2023-04-17T16:52:24.913Z,12.90
2023-04-17T16:54:51.864Z,12.33
2023-04-17T16:57:18.755Z,11.90
2023-04-17T16:59:45.789Z,12.77
2023-04-17T17:02:12.747Z,11.83
2023-04-17T17:04:39.744Z,13.97
2023-04-17T17:07:07.093Z,10.60
2023-04-17T17:09:33.979Z,10.00
2023-04-17T17:12:01.113Z,9.30
2023-04-17T17:14:28.189Z,9.87
2023-04-17T17:16:55.217Z,12.80
2023-04-17T17:19:22.133Z,11.17
2023-04-17T17:21:50.120Z,12.00
2023-04-17T17:24:17.042Z,10.07
2023-04-17T17:26:43.962Z,10.00
2023-04-17T17:29:11.192Z,9.73
2023-04-17T17:31:38.391Z,10.00
2023-04-17T17:34:22.390Z,11.20
2023-04-17T17:36:52.050Z,9.83
2023-04-17T17:39:19.110Z,8.57
2023-04-17T17:41:47.422Z,9.43
2023-04-17T17:44:15.088Z,13.80
2023-04-17T17:46:42.140Z,12.90
2023-04-17T17:49:09.075Z,13.90
2023-04-17T17:51:36.250Z,9.80
2023-04-17T17:54:03.147Z,16.20
2023-04-17T17:56:30.144Z,13.27
2023-04-17T17:58:57.307Z,10.53
2023-04-17T18:01:25.019Z,9.67
2023-04-17T18:03:53.161Z,13.33
2023-04-17T18:06:20.958Z,10.47
2023-04-17T18:08:48.121Z,8.70
2023-04-17T18:11:15.212Z,12.70
2023-04-17T18:13:42.219Z,11.77
2023-04-17T18:16:09.384Z,10.67
2023-04-17T18:18:36.742Z,8.73
2023-04-17T18:21:07.946Z,13.10
2023-04-17T18:23:35.240Z,9.50
2023-04-17T18:26:03.665Z,12.87
2023-04-17T18:28:30.880Z,11.23
2023-04-17T18:30:57.846Z,14.23
2023-04-17T18:33:25.077Z,9.77
2023-04-17T18:35:52.443Z,10.20
2023-04-17T18:38:19.558Z,11.80
2023-04-17T18:40:46.388Z,10.90
2023-04-17T18:43:13.549Z,10.83
2023-04-17T18:45:40.546Z,12.37
2023-04-17T18:48:07.429Z,9.43
2023-04-17T18:50:34.597Z,14.70
2023-04-17T18:53:01.977Z,10.50
2023-04-17T18:55:29.005Z,10.13
2023-04-17T18:57:56.057Z,10.93
2023-04-17T19:00:23.001Z,12.67
2023-04-17T19:02:50.329Z,10.07
2023-04-17T19:05:17.852Z,11.03
2023-04-17T19:07:44.946Z,10.57
2023-04-17T19:10:12.215Z,9.57
2023-04-17T19:12:39.527Z,11.73
2023-04-17T19:15:07.150Z,10.20
2023-04-17T19:17:34.547Z,10.03
2023-04-17T19:20:01.707Z,9.67
2023-04-17T19:22:30.506Z,11.73
2023-04-17T19:24:57.469Z,13.30
2023-04-17T19:27:25.764Z,10.90
2023-04-17T19:29:54.035Z,10.30
2023-04-17T19:32:21.039Z,12.10
2023-04-17T19:34:48.204Z,11.20
2023-04-17T19:37:15.435Z,10.27
2023-04-17T19:39:42.569Z,12.03
2023-04-17T19:42:09.484Z,11.07
2023-04-17T19:44:36.669Z,12.30
2023-04-17T19:47:04.584Z,17.17
2023-04-17T19:49:31.655Z,10.40
2023-04-17T19:52:01.086Z,12.80
2023-04-17T19:54:28.116Z,10.53
2023-04-17T19:56:55.426Z,9.17
2023-04-17T19:59:23.627Z,11.27
2023-04-17T20:01:51.061Z,12.10
2023-04-17T20:04:18.354Z,11.53
2023-04-17T20:06:45.664Z,13.57
2023-04-17T20:09:14.631Z,13.37
2023-04-17T20:11:42.559Z,11.73
2023-04-17T20:14:09.593Z,9.30
2023-04-17T20:16:36.638Z,9.70
2023-04-17T20:19:03.684Z,12.13
2023-04-17T20:21:30.735Z,8.87
2023-04-17T20:23:59.427Z,9.57
2023-04-17T20:26:26.518Z,8.40
2023-04-17T20:28:54.907Z,10.53
2023-04-17T20:31:21.983Z,9.93
2023-04-17T20:33:48.957Z,11.00
2023-04-17T20:36:16.019Z,9.77
2023-04-17T20:38:42.937Z,11.20
2023-04-17T20:41:09.874Z,9.83
2023-04-17T20:43:37.046Z,11.10
2023-04-17T20:46:06.123Z,9.97
2023-04-17T20:48:33.133Z,9.07
2023-04-17T20:51:05.542Z,8.57
2023-04-17T20:53:33.030Z,8.87
2023-04-17T20:56:00.006Z,8.90
2023-04-17T20:58:27.258Z,8.63
2023-04-17T21:01:01.408Z,12.13
2023-04-17T21:03:31.201Z,9.80
2023-04-17T21:05:58.471Z,7.60
2023-04-17T21:08:25.619Z,9.27
2023-04-17T21:10:52.628Z,10.20
2023-04-17T21:13:19.715Z,9.30
2023-04-17T21:15:46.653Z,11.33
2023-04-17T21:18:13.618Z,12.93
2023-04-17T21:20:40.628Z,11.17
2023-04-17T21:23:07.774Z,8.97
2023-04-17T21:25:35.970Z,10.83
2023-04-17T21:28:03.428Z,10.77
2023-04-17T21:30:30.240Z,10.77
2023-04-17T21:32:57.230Z,9.07
2023-04-17T21:35:24.308Z,14.30
2023-04-17T21:37:51.132Z,11.60
2023-04-17T21:40:18.189Z,9.17
2023-04-17T21:42:45.103Z,10.50
2023-04-17T21:45:12.155Z,10.53
2023-04-17T21:47:39.032Z,10.03
2023-04-17T21:50:06.823Z,9.10
2023-04-17T21:52:33.737Z,10.10
2023-04-17T21:55:05.283Z,10.17
2023-04-17T21:57:32.343Z,10.60
2023-04-17T21:59:59.380Z,9.03
2023-04-17T22:02:26.598Z,8.77
2023-04-17T22:04:53.740Z,11.00
2023-04-17T22:07:21.632Z,7.77
2023-04-17T22:09:48.705Z,7.93
2023-04-17T22:12:23.866Z,9.87
2023-04-17T22:14:51.026Z,12.33
2023-04-17T22:17:17.975Z,11.33
2023-04-17T22:19:44.879Z,8.93
2023-04-17T22:22:11.855Z,10.77
2023-04-17T22:24:38.693Z,10.00
2023-04-17T22:27:05.844Z,9.53
2023-04-17T22:29:32.823Z,10.13
2023-04-17T22:31:59.733Z,11.40
2023-04-17T22:34:26.579Z,9.47
2023-04-17T22:36:53.841Z,13.30
2023-04-17T22:39:21.359Z,13.00
2023-04-17T22:41:48.351Z,12.93
2023-04-17T22:44:15.409Z,12.07
2023-04-17T22:46:42.726Z,8.87
2023-04-17T22:49:09.838Z,9.33
2023-04-17T22:51:36.821Z,12.80
2023-04-17T22:54:15.239Z,9.27
2023-04-17T22:56:48.981Z,12.50
2023-04-17T22:59:16.037Z,8.93
2023-04-17T23:01:43.271Z,9.13
2023-04-17T23:04:10.485Z,8.87
2023-04-17T23:06:37.406Z,8.30
2023-04-17T23:09:04.994Z,11.07
2023-04-17T23:11:33.106Z,10.67
2023-04-17T23:14:01.375Z,12.13
2023-04-17T23:16:30.015Z,10.73
2023-04-17T23:18:57.144Z,9.63
2023-04-17T23:21:24.868Z,9.17
2023-04-17T23:23:52.151Z,9.57
2023-04-17T23:26:19.198Z,8.87
2023-04-17T23:28:46.048Z,8.87
2023-04-17T23:31:12.909Z,11.47
2023-04-17T23:33:39.891Z,9.97
2023-04-17T23:36:07.232Z,11.97
2023-04-17T23:38:34.637Z,10.03
2023-04-17T23:41:01.751Z,9.43
2023-04-17T23:43:28.703Z,10.00
2023-04-17T23:45:57.812Z,8.87
2023-04-17T23:48:25.435Z,11.53
2023-04-17T23:50:52.620Z,12.03
2023-04-17T23:53:19.479Z,11.67
2023-04-17T23:55:46.941Z,11.50
2023-04-17T23:58:14.723Z,13.77
